createdAt,value
2023-02-11T00:00:51.587Z,0.00
2023-02-11T00:01:51.652Z,0.00
2023-02-11T00:02:51.977Z,0.00
2023-02-11T00:03:52.382Z,0.00
2023-02-11T00:04:52.671Z,0.00
2023-02-11T00:05:53.048Z,0.00
2023-02-11T00:06:53.441Z,0.00
2023-02-11T00:07:53.748Z,0.00
2023-02-11T00:08:54.102Z,0.00
2023-02-11T00:09:54.463Z,0.00
2023-02-11T00:10:54.789Z,0.00
2023-02-11T00:11:55.113Z,0.00
2023-02-11T00:12:55.506Z,0.00
2023-02-11T00:13:55.918Z,0.00
2023-02-11T00:14:56.221Z,0.00
2023-02-11T00:15:56.536Z,0.00
2023-02-11T00:16:57.006Z,0.00
2023-02-11T00:17:57.263Z,0.00
2023-02-11T00:18:57.640Z,0.00
2023-02-11T00:19:57.959Z,0.00
2023-02-11T00:20:58.265Z,0.00
2023-02-11T00:21:58.610Z,0.00
2023-02-11T00:22:58.969Z,0.00
2023-02-11T00:23:59.349Z,0.00
2023-02-11T00:24:59.711Z,0.00
2023-02-11T00:26:00.026Z,0.00
2023-02-11T00:27:00.353Z,0.00
2023-02-11T00:28:00.744Z,0.00
2023-02-11T00:29:01.056Z,0.00
2023-02-11T00:30:01.375Z,0.00
2023-02-11T00:31:01.960Z,0.00
2023-02-11T00:32:02.171Z,0.00
2023-02-11T00:33:02.442Z,0.00
2023-02-11T00:34:02.806Z,0.00
2023-02-11T00:35:03.114Z,0.00
2023-02-11T00:36:03.500Z,0.00
2023-02-11T00:37:03.836Z,0.00
2023-02-11T00:38:04.208Z,0.00
2023-02-11T00:39:04.544Z,0.00
2023-02-11T00:40:06.734Z,0.00
2023-02-11T00:41:05.238Z,0.00
2023-02-11T00:42:05.575Z,0.00
2023-02-11T00:43:05.934Z,0.00
2023-02-11T00:44:06.329Z,0.00
2023-02-11T00:45:06.711Z,0.00
2023-02-11T00:46:07.032Z,0.00
2023-02-11T00:47:07.395Z,0.00
2023-02-11T00:48:07.711Z,0.00
2023-02-11T00:49:08.056Z,0.00
2023-02-11T00:50:08.404Z,0.00
2023-02-11T00:51:08.761Z,0.00
2023-02-11T00:52:09.104Z,0.00
2023-02-11T00:53:09.483Z,0.00
2023-02-11T00:54:09.843Z,0.00
2023-02-11T00:55:10.180Z,0.00
2023-02-11T00:56:10.515Z,0.00
2023-02-11T00:57:10.849Z,0.00
2023-02-11T00:58:11.200Z,0.00
2023-02-11T00:59:11.541Z,0.00
2023-02-11T01:00:11.904Z,0.00
2023-02-11T01:01:12.251Z,0.00
2023-02-11T01:02:12.565Z,0.00
2023-02-11T01:03:12.888Z,0.00
2023-02-11T01:04:13.256Z,0.00
2023-02-11T01:05:13.638Z,0.00
2023-02-11T01:06:13.952Z,0.00
2023-02-11T01:07:14.304Z,0.00
2023-02-11T01:08:14.639Z,0.00
2023-02-11T01:09:15.028Z,0.00
2023-02-11T01:10:15.340Z,0.00
2023-02-11T01:11:15.650Z,0.00
2023-02-11T01:12:16.034Z,0.00
2023-02-11T01:13:16.371Z,0.00
2023-02-11T01:14:16.724Z,0.00
2023-02-11T01:15:17.080Z,0.00
2023-02-11T01:16:17.536Z,0.00
2023-02-11T01:17:17.760Z,0.00
2023-02-11T01:18:18.085Z,0.00
2023-02-11T01:19:18.479Z,0.00
2023-02-11T01:20:18.782Z,0.00
2023-02-11T01:21:19.124Z,0.00
2023-02-11T01:22:19.446Z,0.00
2023-02-11T01:23:19.821Z,0.00
2023-02-11T01:24:20.175Z,0.00
2023-02-11T01:25:20.492Z,0.00
2023-02-11T01:26:20.836Z,0.00
2023-02-11T01:27:21.184Z,0.00
2023-02-11T01:28:21.623Z,0.00
2023-02-11T01:29:21.925Z,0.00
2023-02-11T01:30:22.326Z,0.00
2023-02-11T01:31:22.701Z,0.00
2023-02-11T01:32:22.999Z,0.00
2023-02-11T01:33:23.361Z,0.00
2023-02-11T01:34:23.724Z,0.00
2023-02-11T01:35:24.100Z,0.00
2023-02-11T01:36:24.411Z,0.00
2023-02-11T01:37:24.761Z,0.00
2023-02-11T01:38:25.096Z,0.00
2023-02-11T01:39:25.439Z,0.00
2023-02-11T01:40:25.778Z,0.00
2023-02-11T01:41:26.144Z,0.00
2023-02-11T01:42:26.488Z,0.00
2023-02-11T01:43:26.911Z,0.00
2023-02-11T01:44:27.249Z,0.00
2023-02-11T01:45:27.592Z,0.00
2023-02-11T01:46:27.960Z,0.00
2023-02-11T01:47:28.257Z,0.00
2023-02-11T01:48:28.648Z,0.00
2023-02-11T01:49:29.083Z,0.00
2023-02-11T01:50:29.301Z,0.00
2023-02-11T01:51:29.690Z,0.00
2023-02-11T01:52:30.009Z,0.00
2023-02-11T01:53:30.360Z,0.00
2023-02-11T01:54:30.706Z,0.00
2023-02-11T01:55:31.030Z,0.00
2023-02-11T01:56:31.439Z,0.00
2023-02-11T01:57:31.771Z,0.00
2023-02-11T01:58:32.134Z,0.00
2023-02-11T01:59:32.471Z,0.00
2023-02-11T02:00:32.817Z,0.00
2023-02-11T02:01:33.175Z,0.00
2023-02-11T02:02:33.528Z,0.00
2023-02-11T02:03:33.860Z,0.00
2023-02-11T02:04:34.169Z,0.00
2023-02-11T02:05:34.511Z,0.00
2023-02-11T02:06:34.833Z,0.00
2023-02-11T02:07:35.175Z,0.00
2023-02-11T02:08:35.521Z,0.00
2023-02-11T02:09:35.868Z,0.00
2023-02-11T02:10:36.186Z,0.00
2023-02-11T02:11:36.539Z,0.00
2023-02-11T02:12:36.858Z,0.00
2023-02-11T02:13:37.275Z,0.00
2023-02-11T02:14:37.620Z,0.00
2023-02-11T02:15:37.950Z,0.00
2023-02-11T02:16:38.345Z,0.00
2023-02-11T02:17:38.706Z,0.00
2023-02-11T02:18:39.013Z,0.00
2023-02-11T02:19:39.394Z,0.00
2023-02-11T02:20:39.715Z,0.00
2023-02-11T02:21:40.090Z,0.00
2023-02-11T02:22:40.461Z,0.00
2023-02-11T02:23:40.814Z,0.00
2023-02-11T02:24:41.195Z,0.00
2023-02-11T02:25:41.492Z,0.00
2023-02-11T02:26:41.858Z,0.00
2023-02-11T02:27:42.235Z,0.00
2023-02-11T02:28:42.582Z,0.00
2023-02-11T02:29:42.988Z,0.00
2023-02-11T02:30:43.356Z,0.00
2023-02-11T02:31:43.709Z,0.00
2023-02-11T02:32:44.036Z,0.00
2023-02-11T02:33:44.363Z,0.00
2023-02-11T02:34:44.699Z,0.00
2023-02-11T02:35:45.037Z,0.00
2023-02-11T02:36:45.400Z,0.00
2023-02-11T02:37:45.765Z,0.00
2023-02-11T02:38:46.105Z,0.00
2023-02-11T02:39:46.464Z,0.00
2023-02-11T02:40:46.770Z,0.00
2023-02-11T02:41:47.158Z,0.00
2023-02-11T02:42:47.506Z,0.00
2023-02-11T02:43:47.853Z,0.00
2023-02-11T02:44:48.215Z,0.00
2023-02-11T02:45:49.005Z,0.00
2023-02-11T02:46:48.936Z,0.00
2023-02-11T02:47:49.232Z,0.00
2023-02-11T02:48:49.591Z,0.00
2023-02-11T02:49:49.962Z,0.00
2023-02-11T02:50:50.279Z,0.00
2023-02-11T02:51:50.637Z,0.00
2023-02-11T02:52:50.950Z,0.00
2023-02-11T02:53:51.274Z,0.00
2023-02-11T02:54:51.686Z,0.00
2023-02-11T02:55:52.235Z,0.00
2023-02-11T02:56:52.370Z,0.00
2023-02-11T02:57:52.723Z,0.00
2023-02-11T02:58:53.146Z,0.00
2023-02-11T02:59:53.540Z,0.00
2023-02-11T03:00:53.845Z,0.00
2023-02-11T03:01:54.191Z,0.00
2023-02-11T03:02:54.493Z,0.00
2023-02-11T03:03:54.860Z,0.00
2023-02-11T03:04:55.193Z,0.00
2023-02-11T03:05:55.551Z,0.00
2023-02-11T03:06:55.879Z,0.00
2023-02-11T03:07:56.232Z,0.00
2023-02-11T03:08:56.603Z,0.00
2023-02-11T03:09:56.971Z,0.00
2023-02-11T03:10:57.305Z,0.00
2023-02-11T03:11:57.639Z,0.00
2023-02-11T03:12:57.982Z,0.00
2023-02-11T03:13:58.331Z,0.00
2023-02-11T03:14:58.687Z,0.00
2023-02-11T03:15:59.046Z,0.00
2023-02-11T03:16:59.380Z,0.00
2023-02-11T03:17:59.717Z,0.00
2023-02-11T03:19:00.049Z,0.00
2023-02-11T03:20:00.434Z,0.00
2023-02-11T03:21:00.737Z,0.00
2023-02-11T03:22:01.077Z,0.00
2023-02-11T03:23:01.398Z,0.00
2023-02-11T03:24:01.749Z,0.00
2023-02-11T03:25:02.129Z,0.00
2023-02-11T03:26:02.486Z,0.00
2023-02-11T03:27:02.826Z,0.00
2023-02-11T03:28:03.169Z,0.00
2023-02-11T03:29:03.488Z,0.00
2023-02-11T03:30:03.871Z,0.00
2023-02-11T03:31:04.320Z,0.00
2023-02-11T03:32:04.606Z,0.00
2023-02-11T03:33:04.913Z,0.00
2023-02-11T03:34:05.241Z,0.00
2023-02-11T03:35:05.643Z,0.00
2023-02-11T03:36:05.981Z,0.00
2023-02-11T03:37:06.331Z,0.00
2023-02-11T03:38:06.662Z,0.00
2023-02-11T03:39:07.028Z,0.00
2023-02-11T03:40:07.382Z,0.00
2023-02-11T03:41:07.707Z,0.00
2023-02-11T03:42:08.057Z,0.00
2023-02-11T03:43:08.407Z,0.00
2023-02-11T03:44:08.750Z,0.00
2023-02-11T03:45:09.116Z,0.00
2023-02-11T03:46:09.552Z,0.00
2023-02-11T03:47:09.791Z,0.00
2023-02-11T03:48:10.145Z,0.00
2023-02-11T03:49:10.479Z,0.00
2023-02-11T03:50:10.844Z,0.00
2023-02-11T03:51:11.164Z,0.00
2023-02-11T03:52:11.558Z,0.00
2023-02-11T03:53:11.893Z,0.00
2023-02-11T03:54:12.253Z,0.00
2023-02-11T03:55:12.626Z,0.00
2023-02-11T03:56:12.952Z,0.00
2023-02-11T03:57:13.308Z,0.00
2023-02-11T03:58:13.656Z,0.00
2023-02-11T03:59:13.998Z,0.00
2023-02-11T04:00:14.353Z,0.00
2023-02-11T04:01:14.791Z,0.00
2023-02-11T04:02:15.064Z,0.00
2023-02-11T04:03:15.486Z,0.00
2023-02-11T04:04:15.759Z,0.00
2023-02-11T04:05:16.143Z,0.00
2023-02-11T04:06:16.431Z,0.00
2023-02-11T04:07:16.776Z,0.00
2023-02-11T04:08:17.118Z,0.00
2023-02-11T04:09:17.469Z,0.00
2023-02-11T04:10:17.838Z,0.00
2023-02-11T04:11:18.178Z,0.00
2023-02-11T04:12:18.529Z,0.00
2023-02-11T04:13:18.886Z,0.00
2023-02-11T04:14:19.233Z,0.00
2023-02-11T04:15:19.607Z,0.00
2023-02-11T04:16:19.962Z,0.00
2023-02-11T04:17:20.313Z,0.00
2023-02-11T04:18:20.655Z,0.00
2023-02-11T04:19:20.995Z,0.00
2023-02-11T04:20:21.390Z,0.00
2023-02-11T04:21:21.682Z,0.00
2023-02-11T04:22:22.021Z,0.00
2023-02-11T04:23:22.384Z,0.00
2023-02-11T04:24:22.701Z,0.00
2023-02-11T04:25:23.075Z,0.00
2023-02-11T04:26:23.423Z,0.00
2023-02-11T04:27:23.748Z,0.00
2023-02-11T04:28:24.169Z,0.00
2023-02-11T04:29:24.486Z,0.00
2023-02-11T04:30:24.796Z,0.00
2023-02-11T04:31:25.406Z,0.00
2023-02-11T04:32:25.535Z,0.00
2023-02-11T04:33:25.874Z,0.00
2023-02-11T04:34:26.209Z,0.00
2023-02-11T04:35:26.572Z,0.00
2023-02-11T04:36:26.922Z,0.00
2023-02-11T04:37:27.250Z,0.00
2023-02-11T04:38:27.602Z,0.00
2023-02-11T04:39:27.967Z,0.00
2023-02-11T04:40:28.331Z,0.00
2023-02-11T04:41:28.632Z,0.00
2023-02-11T04:42:28.971Z,0.00
2023-02-11T04:43:29.302Z,0.00
2023-02-11T04:44:29.694Z,0.00
2023-02-11T04:45:30.004Z,0.00
2023-02-11T04:46:30.389Z,0.00
2023-02-11T04:47:30.707Z,0.00
2023-02-11T04:48:31.038Z,0.00
2023-02-11T04:49:31.381Z,0.00
2023-02-11T04:50:31.725Z,0.00
2023-02-11T04:51:32.061Z,0.00
2023-02-11T04:52:32.408Z,0.00
2023-02-11T04:53:32.758Z,0.00
2023-02-11T04:54:33.102Z,0.00
2023-02-11T04:55:33.456Z,0.00
2023-02-11T04:56:33.823Z,0.00
2023-02-11T04:57:34.160Z,0.00
2023-02-11T04:58:34.490Z,0.00
2023-02-11T04:59:34.820Z,0.00
2023-02-11T05:00:35.202Z,0.00
2023-02-11T05:01:35.639Z,0.00
2023-02-11T05:02:35.905Z,0.00
2023-02-11T05:03:36.252Z,0.00
2023-02-11T05:04:36.596Z,0.00
2023-02-11T05:05:36.974Z,0.00
2023-02-11T05:06:37.323Z,0.00
2023-02-11T05:07:37.648Z,0.00
2023-02-11T05:08:38.050Z,0.00
2023-02-11T05:09:38.395Z,0.00
2023-02-11T05:10:38.739Z,0.00
2023-02-11T05:11:39.095Z,0.00
2023-02-11T05:12:39.438Z,0.00
2023-02-11T05:13:39.812Z,0.00
2023-02-11T05:14:40.142Z,0.00
2023-02-11T05:15:40.499Z,0.00
2023-02-11T05:16:40.909Z,0.00
2023-02-11T05:17:41.188Z,0.00
2023-02-11T05:18:41.538Z,0.00
2023-02-11T05:19:41.884Z,0.00
2023-02-11T05:20:42.283Z,0.00
2023-02-11T05:21:56.600Z,0.00
2023-02-11T05:22:42.923Z,0.00
2023-02-11T05:23:43.271Z,0.00
2023-02-11T05:24:43.620Z,0.00
2023-02-11T05:25:44.004Z,0.00
2023-02-11T05:26:44.307Z,0.00
2023-02-11T05:27:44.644Z,0.00
2023-02-11T05:28:45.016Z,0.00
2023-02-11T05:29:45.388Z,0.00
2023-02-11T05:30:45.771Z,0.00
2023-02-11T05:31:46.062Z,0.00
2023-02-11T05:32:46.392Z,0.00
2023-02-11T05:33:46.738Z,0.00
2023-02-11T05:34:47.071Z,0.00
2023-02-11T05:35:47.458Z,0.00
2023-02-11T05:36:47.785Z,0.00
2023-02-11T05:37:48.172Z,0.00
2023-02-11T05:38:48.478Z,0.00
2023-02-11T05:39:48.825Z,0.00
2023-02-11T05:40:49.193Z,0.00
2023-02-11T05:41:49.533Z,0.00
2023-02-11T05:42:49.872Z,0.00
2023-02-11T05:43:50.222Z,0.00
2023-02-11T05:44:50.853Z,0.00
2023-02-11T05:45:51.279Z,0.00
2023-02-11T05:46:51.298Z,0.00
2023-02-11T05:47:51.645Z,0.00
2023-02-11T05:48:51.970Z,0.00
2023-02-11T05:49:52.302Z,0.00
2023-02-11T05:50:52.701Z,0.00
2023-02-11T05:51:52.983Z,0.00
2023-02-11T05:52:53.327Z,0.00
2023-02-11T05:53:53.685Z,0.00
2023-02-11T05:54:54.025Z,0.00
2023-02-11T05:55:54.377Z,0.00
2023-02-11T05:56:54.711Z,0.00
2023-02-11T05:57:55.117Z,0.00
2023-02-11T05:58:55.414Z,0.00
2023-02-11T05:59:55.769Z,0.00
2023-02-11T06:00:56.123Z,0.00
2023-02-11T06:01:56.466Z,0.00
2023-02-11T06:02:56.882Z,0.00
2023-02-11T06:03:57.269Z,0.00
2023-02-11T06:04:57.530Z,0.00
2023-02-11T06:05:57.886Z,0.00
2023-02-11T06:06:58.232Z,0.00
2023-02-11T06:07:58.575Z,0.00
2023-02-11T06:08:58.929Z,0.00
2023-02-11T06:09:59.275Z,0.00
2023-02-11T06:10:59.616Z,0.00
2023-02-11T06:11:59.978Z,0.00
2023-02-11T06:13:00.335Z,0.00
2023-02-11T06:14:00.661Z,0.00
2023-02-11T06:15:01.021Z,0.00
2023-02-11T06:16:01.437Z,0.00
2023-02-11T06:17:01.786Z,0.00
2023-02-11T06:18:02.097Z,0.00
2023-02-11T06:19:02.407Z,0.00
2023-02-11T06:20:02.794Z,0.00
2023-02-11T06:21:03.171Z,0.00
2023-02-11T06:22:03.464Z,0.00
2023-02-11T06:23:03.818Z,0.00
2023-02-11T06:24:04.179Z,0.00
2023-02-11T06:25:04.531Z,0.00
2023-02-11T06:26:04.906Z,0.00
2023-02-11T06:27:05.246Z,0.00
2023-02-11T06:28:05.629Z,0.00
2023-02-11T06:29:05.928Z,0.00
2023-02-11T06:30:06.177Z,1.00
2023-02-11T06:31:06.926Z,0.00
2023-02-11T06:32:08.612Z,0.00
2023-02-11T06:33:07.466Z,0.00
2023-02-11T06:34:07.706Z,0.00
2023-02-11T06:35:10.054Z,1.00
2023-02-11T06:36:08.317Z,0.00
2023-02-11T06:37:08.609Z,0.00
2023-02-11T06:38:08.851Z,1.00
2023-02-11T06:39:09.030Z,2.00
2023-02-11T06:40:09.447Z,0.00
2023-02-11T06:41:09.672Z,1.00
2023-02-11T06:42:09.917Z,1.00
2023-02-11T06:43:10.365Z,0.00
2023-02-11T06:44:10.613Z,2.00
2023-02-11T06:45:10.959Z,1.00
2023-02-11T06:46:11.242Z,2.00
2023-02-11T06:47:11.479Z,1.00
2023-02-11T06:48:11.752Z,1.00
2023-02-11T06:49:12.066Z,2.00
2023-02-11T06:50:12.346Z,2.00
2023-02-11T06:51:12.807Z,0.00
2023-02-11T06:52:13.042Z,2.00
2023-02-11T06:53:13.437Z,0.00
2023-02-11T06:54:13.838Z,0.00
2023-02-11T06:55:14.072Z,2.00
2023-02-11T06:56:14.379Z,2.00
2023-02-11T06:57:14.643Z,1.00
2023-02-11T06:58:14.962Z,1.00
2023-02-11T06:59:15.226Z,1.00
2023-02-11T07:00:15.496Z,3.00
2023-02-11T07:01:15.799Z,3.00
2023-02-11T07:02:17.988Z,0.00
2023-02-11T07:03:16.667Z,0.00
2023-02-11T07:04:16.882Z,0.00
2023-02-11T07:05:17.008Z,2.00
2023-02-11T07:06:17.316Z,2.00
2023-02-11T07:07:17.592Z,2.00
2023-02-11T07:08:17.878Z,7.00
2023-02-11T07:09:18.196Z,5.00
2023-02-11T07:10:18.422Z,7.00
2023-02-11T07:11:18.733Z,1.00
2023-02-11T07:12:18.996Z,2.00
2023-02-11T07:13:19.307Z,7.00
2023-02-11T07:14:19.569Z,7.00
2023-02-11T07:15:19.864Z,4.00
2023-02-11T07:16:20.219Z,2.00
2023-02-11T07:17:20.300Z,4.00
2023-02-11T07:18:20.568Z,4.00
2023-02-11T07:19:20.860Z,3.00
2023-02-11T07:20:21.148Z,4.00
2023-02-11T07:21:21.495Z,3.00
2023-02-11T07:22:21.621Z,5.00
2023-02-11T07:23:21.906Z,1.00
2023-02-11T07:24:22.193Z,1.00
2023-02-11T07:25:22.474Z,2.00
2023-02-11T07:26:22.786Z,6.00
2023-02-11T07:27:23.043Z,6.00
2023-02-11T07:28:23.366Z,6.00
2023-02-11T07:29:23.600Z,9.00
2023-02-11T07:30:23.888Z,7.00
2023-02-11T07:31:24.325Z,10.00
2023-02-11T07:32:24.362Z,9.00
2023-02-11T07:33:24.613Z,9.00
2023-02-11T07:34:24.973Z,11.00
2023-02-11T07:35:25.227Z,6.00
2023-02-11T07:36:25.565Z,11.00
2023-02-11T07:37:25.678Z,6.00
2023-02-11T07:38:25.955Z,10.00
2023-02-11T07:39:26.135Z,9.00
2023-02-11T07:40:26.288Z,13.00
2023-02-11T07:41:26.506Z,16.00
2023-02-11T07:42:26.631Z,12.00
2023-02-11T07:43:26.787Z,12.00
2023-02-11T07:44:27.090Z,7.00
2023-02-11T07:45:27.377Z,12.00
2023-02-11T07:46:27.787Z,12.00
2023-02-11T07:47:27.840Z,13.00
2023-02-11T07:48:27.995Z,19.00
2023-02-11T07:49:28.203Z,17.00
2023-02-11T07:50:28.472Z,18.00
2023-02-11T07:51:28.667Z,18.00
2023-02-11T07:52:28.935Z,15.00
2023-02-11T07:53:29.259Z,15.00
2023-02-11T07:54:29.419Z,19.00
2023-02-11T07:55:29.701Z,20.00
2023-02-11T07:56:29.884Z,19.00
2023-02-11T07:57:30.190Z,25.00
2023-02-11T07:58:30.331Z,22.00
2023-02-11T07:59:30.512Z,13.00
2023-02-11T08:00:30.803Z,22.00
2023-02-11T08:01:31.101Z,19.00
2023-02-11T08:02:31.406Z,22.00
2023-02-11T08:03:31.680Z,18.00
2023-02-11T08:04:31.849Z,20.00
2023-02-11T08:05:32.021Z,21.00
2023-02-11T08:06:32.218Z,20.00
2023-02-11T08:07:32.371Z,22.00
2023-02-11T08:08:32.531Z,25.00
2023-02-11T08:09:34.492Z,19.00
2023-02-11T08:10:33.093Z,21.00
2023-02-11T08:11:33.412Z,18.00
2023-02-11T08:12:33.567Z,15.00
2023-02-11T08:13:33.740Z,13.00
2023-02-11T08:14:33.890Z,15.00
2023-02-11T08:15:34.203Z,22.00
2023-02-11T08:16:34.536Z,21.00
2023-02-11T08:17:34.626Z,24.00
2023-02-11T08:18:34.944Z,26.00
2023-02-11T08:19:35.382Z,27.00
2023-02-11T08:20:35.357Z,26.00
2023-02-11T08:21:35.673Z,24.00
2023-02-11T08:22:35.854Z,25.00
2023-02-11T08:23:35.994Z,26.00
2023-02-11T08:24:36.151Z,25.00
2023-02-11T08:25:36.347Z,26.00
2023-02-11T08:26:36.659Z,28.00
2023-02-11T08:27:36.777Z,28.00
2023-02-11T08:28:37.214Z,28.00
2023-02-11T08:29:37.279Z,32.00
2023-02-11T08:30:37.572Z,34.00
2023-02-11T08:31:37.945Z,30.00
2023-02-11T08:32:38.100Z,34.00
2023-02-11T08:33:38.276Z,34.00
2023-02-11T08:34:38.545Z,33.00
2023-02-11T08:35:38.733Z,32.00
2023-02-11T08:36:38.940Z,36.00
2023-02-11T08:37:39.056Z,36.00
2023-02-11T08:38:39.340Z,36.00
2023-02-11T08:39:39.650Z,34.00
2023-02-11T08:40:39.820Z,35.00
2023-02-11T08:41:40.006Z,33.00
2023-02-11T08:42:40.290Z,30.00
2023-02-11T08:43:40.442Z,36.00
2023-02-11T08:44:40.737Z,36.00
2023-02-11T08:45:41.067Z,34.00
2023-02-11T08:46:41.244Z,34.00
2023-02-11T08:47:41.370Z,33.00
2023-02-11T08:48:41.530Z,33.00
2023-02-11T08:49:41.834Z,34.00
2023-02-11T08:50:42.146Z,35.00
2023-02-11T08:51:42.435Z,42.00
2023-02-11T08:52:42.710Z,42.00
2023-02-11T08:53:42.889Z,44.00
2023-02-11T08:54:43.206Z,38.00
2023-02-11T08:55:43.502Z,42.00
2023-02-11T08:56:43.799Z,47.00
2023-02-11T08:57:44.070Z,43.00
2023-02-11T08:58:44.234Z,43.00
2023-02-11T08:59:44.400Z,42.00
2023-02-11T09:00:44.718Z,44.00
2023-02-11T09:01:45.068Z,49.00
2023-02-11T09:02:45.350Z,46.00
2023-02-11T09:03:45.590Z,45.00
2023-02-11T09:04:45.889Z,38.00
2023-02-11T09:05:46.081Z,41.00
2023-02-11T09:06:46.357Z,45.00
2023-02-11T09:07:46.491Z,49.00
2023-02-11T09:08:46.809Z,43.00
2023-02-11T09:09:47.130Z,42.00
2023-02-11T09:10:47.412Z,29.00
2023-02-11T09:11:47.719Z,38.00
2023-02-11T09:12:47.991Z,39.00
2023-02-11T09:13:48.317Z,34.00
2023-02-11T09:14:48.450Z,36.00
2023-02-11T09:15:48.730Z,36.00
2023-02-11T09:16:49.182Z,32.00
2023-02-11T09:17:49.082Z,35.00
2023-02-11T09:18:49.364Z,30.00
2023-02-11T09:19:49.664Z,23.00
2023-02-11T09:20:50.376Z,29.00
2023-02-11T09:21:50.190Z,29.00
2023-02-11T09:22:50.424Z,25.00
2023-02-11T09:23:50.721Z,25.00
2023-02-11T09:24:50.985Z,24.00
2023-02-11T09:25:51.637Z,27.00
2023-02-11T09:26:51.606Z,23.00
2023-02-11T09:27:51.744Z,26.00
2023-02-11T09:28:51.940Z,22.00
2023-02-11T09:29:52.079Z,25.00
2023-02-11T09:30:52.679Z,29.00
2023-02-11T09:31:52.752Z,29.00
2023-02-11T09:32:52.852Z,35.00
2023-02-11T09:33:53.164Z,34.00
2023-02-11T09:34:53.307Z,33.00
2023-02-11T09:35:53.475Z,33.00
2023-02-11T09:36:53.664Z,33.00
2023-02-11T09:37:53.804Z,34.00
2023-02-11T09:38:54.113Z,35.00
2023-02-11T09:39:54.400Z,36.00
2023-02-11T09:40:54.671Z,44.00
2023-02-11T09:41:54.877Z,44.00
2023-02-11T09:42:56.778Z,46.00
2023-02-11T09:43:55.224Z,43.00
2023-02-11T09:44:55.499Z,43.00
2023-02-11T09:45:55.885Z,48.00
2023-02-11T09:46:55.976Z,45.00
2023-02-11T09:47:56.115Z,41.00
2023-02-11T09:48:56.409Z,52.00
2023-02-11T09:49:56.724Z,49.00
2023-02-11T09:50:56.992Z,45.00
2023-02-11T09:51:57.311Z,55.00
2023-02-11T09:52:57.483Z,47.00
2023-02-11T09:54:00.327Z,51.00
2023-02-11T09:54:58.034Z,51.00
2023-02-11T09:55:58.196Z,57.00
2023-02-11T09:56:58.370Z,51.00
2023-02-11T09:57:58.664Z,63.00
2023-02-11T09:58:58.807Z,60.00
2023-02-11T09:59:59.126Z,55.00
2023-02-11T10:00:59.464Z,64.00
2023-02-11T10:01:59.715Z,66.00
2023-02-11T10:02:59.972Z,66.00
2023-02-11T10:04:00.382Z,65.00
2023-02-11T10:05:00.436Z,60.00
2023-02-11T10:06:00.662Z,60.00
2023-02-11T10:07:00.783Z,62.00
2023-02-11T10:08:01.071Z,62.00
2023-02-11T10:09:01.388Z,68.00
2023-02-11T10:10:01.520Z,68.00
2023-02-11T10:11:01.691Z,75.00
2023-02-11T10:12:02.018Z,76.00
2023-02-11T10:13:02.305Z,69.00
2023-02-11T10:14:02.583Z,68.00
2023-02-11T10:15:02.765Z,63.00
2023-02-11T10:16:03.100Z,66.00
2023-02-11T10:17:03.232Z,58.00
2023-02-11T10:18:03.386Z,60.00
2023-02-11T10:19:03.680Z,54.00
2023-02-11T10:20:03.853Z,54.00
2023-02-11T10:21:04.038Z,55.00
2023-02-11T10:22:04.347Z,67.00
2023-02-11T10:23:04.484Z,66.00
2023-02-11T10:24:04.673Z,57.00
2023-02-11T10:25:04.823Z,60.00
2023-02-11T10:26:05.118Z,58.00
2023-02-11T10:27:05.297Z,57.00
2023-02-11T10:28:05.597Z,63.00
2023-02-11T10:29:05.737Z,67.00
2023-02-11T10:30:06.045Z,55.00
2023-02-11T10:31:06.403Z,54.00
2023-02-11T10:32:06.431Z,55.00
2023-02-11T10:33:06.643Z,57.00
2023-02-11T10:34:06.938Z,54.00
2023-02-11T10:35:07.078Z,56.00
2023-02-11T10:36:07.370Z,46.00
2023-02-11T10:37:07.553Z,51.00
2023-02-11T10:38:07.821Z,42.00
2023-02-11T10:39:07.988Z,42.00
2023-02-11T10:40:08.287Z,42.00
2023-02-11T10:41:08.425Z,49.00
2023-02-11T10:42:08.729Z,42.00
2023-02-11T10:43:09.014Z,36.00
2023-02-11T10:44:09.178Z,38.00
2023-02-11T10:45:09.506Z,36.00
2023-02-11T10:46:09.723Z,40.00
2023-02-11T10:47:09.835Z,41.00
2023-02-11T10:48:10.110Z,36.00
2023-02-11T10:49:10.407Z,39.00
2023-02-11T10:50:10.567Z,46.00
2023-02-11T10:51:13.366Z,50.00
2023-02-11T10:52:11.200Z,51.00
2023-02-11T10:53:11.323Z,57.00
2023-02-11T10:54:13.661Z,66.00
2023-02-11T10:55:11.802Z,64.00
2023-02-11T10:56:11.971Z,65.00
2023-02-11T10:57:12.149Z,60.00
2023-02-11T10:58:12.413Z,69.00
2023-02-11T10:59:12.706Z,84.00
2023-02-11T11:00:13.009Z,87.00
2023-02-11T11:01:23.968Z,89.00
2023-02-11T11:02:13.408Z,86.00
2023-02-11T11:03:13.599Z,96.00
2023-02-11T11:04:13.815Z,95.00
2023-02-11T11:05:13.954Z,98.00
2023-02-11T11:06:14.112Z,96.00
2023-02-11T11:07:14.432Z,94.00
2023-02-11T11:08:14.582Z,109.00
2023-02-11T11:09:14.876Z,110.00
2023-02-11T11:10:15.266Z,114.00
2023-02-11T11:11:15.450Z,107.00
2023-02-11T11:12:15.649Z,96.00
2023-02-11T11:13:15.798Z,109.00
2023-02-11T11:14:15.978Z,86.00
2023-02-11T11:15:16.127Z,76.00
2023-02-11T11:16:16.527Z,76.00
2023-02-11T11:17:16.773Z,76.00
2023-02-11T11:18:22.488Z,69.00
2023-02-11T11:19:17.222Z,66.00
2023-02-11T11:20:17.494Z,63.00
2023-02-11T11:21:17.648Z,51.00
2023-02-11T11:22:17.998Z,52.00
2023-02-11T11:23:18.128Z,51.00
2023-02-11T11:24:18.285Z,60.00
2023-02-11T11:25:18.443Z,53.00
2023-02-11T11:26:18.601Z,56.00
2023-02-11T11:27:18.788Z,60.00
2023-02-11T11:28:19.139Z,66.00
2023-02-11T11:29:19.356Z,73.00
2023-02-11T11:30:19.525Z,76.00
2023-02-11T11:31:19.834Z,73.00
2023-02-11T11:32:20.714Z,63.00
2023-02-11T11:33:20.128Z,71.00
2023-02-11T11:34:20.306Z,72.00
2023-02-11T11:35:20.622Z,78.00
2023-02-11T11:36:20.776Z,81.00
2023-02-11T11:37:20.956Z,86.00
2023-02-11T11:38:21.115Z,78.00
2023-02-11T11:39:21.267Z,90.00
2023-02-11T11:40:21.449Z,100.00
2023-02-11T11:41:21.642Z,103.00
2023-02-11T11:42:21.834Z,101.00
2023-02-11T11:43:23.416Z,106.00
2023-02-11T11:44:22.252Z,97.00
2023-02-11T11:45:22.430Z,103.00
2023-02-11T11:46:22.857Z,117.00
2023-02-11T11:47:22.930Z,120.00
2023-02-11T11:48:23.103Z,117.00
2023-02-11T11:49:23.378Z,111.00
2023-02-11T11:50:23.571Z,113.00
2023-02-11T11:51:23.780Z,122.00
2023-02-11T11:52:23.952Z,125.00
2023-02-11T11:53:24.101Z,128.00
2023-02-11T11:54:24.404Z,122.00
2023-02-11T11:55:24.691Z,118.00
2023-02-11T11:56:24.982Z,119.00
2023-02-11T11:57:25.301Z,125.00
2023-02-11T11:58:25.477Z,124.00
2023-02-11T11:59:25.777Z,118.00
2023-02-11T12:00:26.089Z,118.00
2023-02-11T12:01:26.228Z,126.00
2023-02-11T12:02:26.509Z,120.00
2023-02-11T12:03:26.687Z,139.00
2023-02-11T12:04:26.859Z,140.00
2023-02-11T12:05:27.184Z,129.00
2023-02-11T12:06:27.468Z,121.00
2023-02-11T12:07:27.669Z,113.00
2023-02-11T12:08:27.832Z,126.00
2023-02-11T12:09:28.100Z,111.00
2023-02-11T12:10:28.269Z,89.00
2023-02-11T12:11:28.579Z,90.00
2023-02-11T12:12:28.881Z,98.00
2023-02-11T12:13:29.034Z,112.00
2023-02-11T12:14:29.360Z,115.00
2023-02-11T12:15:29.509Z,95.00
2023-02-11T12:16:29.796Z,91.00
2023-02-11T12:17:29.878Z,103.00
2023-02-11T12:18:30.135Z,112.00
2023-02-11T12:19:30.433Z,136.00
2023-02-11T12:20:30.710Z,131.00
2023-02-11T12:21:31.023Z,120.00
2023-02-11T12:22:31.243Z,112.00
2023-02-11T12:23:31.483Z,114.00
2023-02-11T12:24:31.693Z,124.00
2023-02-11T12:25:31.983Z,108.00
2023-02-11T12:26:32.267Z,89.00
2023-02-11T12:27:32.453Z,83.00
2023-02-11T12:28:32.826Z,85.00
2023-02-11T12:29:32.924Z,90.00
2023-02-11T12:30:33.114Z,89.00
2023-02-11T12:31:33.382Z,77.00
2023-02-11T12:32:33.671Z,69.00
2023-02-11T12:33:33.851Z,68.00
2023-02-11T12:34:34.128Z,67.00
2023-02-11T12:35:34.459Z,68.00
2023-02-11T12:36:34.613Z,65.00
2023-02-11T12:37:34.826Z,70.00
2023-02-11T12:38:34.933Z,65.00
2023-02-11T12:39:35.106Z,62.00
2023-02-11T12:40:35.285Z,67.00
2023-02-11T12:41:35.563Z,67.00
2023-02-11T12:42:35.876Z,68.00
2023-02-11T12:43:36.003Z,67.00
2023-02-11T12:44:36.161Z,57.00
2023-02-11T12:45:36.377Z,65.00
2023-02-11T12:46:36.497Z,61.00
2023-02-11T12:47:36.680Z,72.00
2023-02-11T12:48:36.859Z,83.00
2023-02-11T12:49:36.985Z,72.00
2023-02-11T12:50:37.164Z,85.00
2023-02-11T12:51:37.337Z,76.00
2023-02-11T12:52:37.512Z,84.00
2023-02-11T12:53:37.682Z,81.00
2023-02-11T12:54:37.965Z,85.00
2023-02-11T12:55:38.170Z,80.00
2023-02-11T12:56:38.322Z,88.00
2023-02-11T12:57:38.500Z,95.00
2023-02-11T12:58:44.943Z,102.00
2023-02-11T12:59:38.819Z,97.00
2023-02-11T13:00:38.987Z,105.00
2023-02-11T13:01:39.333Z,117.00
2023-02-11T13:02:39.589Z,133.00
2023-02-11T13:03:39.791Z,137.00
2023-02-11T13:04:39.963Z,121.00
2023-02-11T13:05:40.139Z,96.00
2023-02-11T13:06:40.277Z,95.00
2023-02-11T13:07:40.602Z,111.00
2023-02-11T13:08:40.901Z,120.00
2023-02-11T13:09:41.041Z,103.00